Time;durP1;ratioP1;P1;durP2;ratioP2;P2;SDS_P1;SDS_P2;PMS_P1;PMS_P2;Temp;Humidity;BMP_temperature;BMP_pressure;BME280_temperature;BME280_humidity;BME280_pressure;Samples;Min_cycle;Max_cycle;Signal;HPM_P1;HPM_P2
2023/10/30 00:00:46;;;;;;;0.28;0.28;;;;;;;10.45;100.00;98006.59;4902862;29;20092;-59
2023/10/30 00:03:14;;;;;;;0.22;0.22;;;;;;;10.54;100.00;98010.34;4904483;29;20143;-59
2023/10/30 00:05:41;;;;;;;0.20;0.20;;;;;;;10.51;100.00;98002.06;4920709;29;20048;-59
2023/10/30 00:08:08;;;;;;;0.30;0.30;;;;;;;10.44;100.00;98007.69;4901462;29;20467;-59
2023/10/30 00:10:36;;;;;;;0.20;0.20;;;;;;;10.43;100.00;97997.22;4901046;29;20111;-59
2023/10/30 00:13:03;;;;;;;0.20;0.20;;;;;;;10.51;100.00;97994.00;4906739;29;20420;-59
2023/10/30 00:15:31;;;;;;;0.30;0.30;;;;;;;10.58;100.00;97994.50;4909295;29;20415;-60
2023/10/30 00:17:58;;;;;;;0.30;0.30;;;;;;;10.49;100.00;98001.50;4903886;29;20167;-59
2023/10/30 00:20:27;;;;;;;0.20;0.20;;;;;;;10.56;100.00;97997.47;4907274;29;20440;-59
2023/10/30 00:22:54;;;;;;;0.15;0.15;;;;;;;10.60;100.00;97994.25;4902463;29;20242;-59
2023/10/30 00:25:21;;;;;;;0.20;0.20;;;;;;;10.57;100.00;97999.06;4900218;29;20062;-59
2023/10/30 00:27:48;;;;;;;0.22;0.22;;;;;;;10.51;100.00;97994.81;4902817;29;20044;-59
2023/10/30 00:30:16;;;;;;;0.20;0.20;;;;;;;10.30;100.00;97990.56;4897240;29;20047;-58
2023/10/30 00:32:43;;;;;;;0.20;0.20;;;;;;;10.38;100.00;97989.22;4898722;29;20045;-59
2023/10/30 00:35:10;;;;;;;0.20;0.20;;;;;;;10.36;100.00;97987.63;4902492;29;20048;-59
2023/10/30 00:37:38;;;;;;;0.28;0.28;;;;;;;10.34;100.00;97983.59;4901152;29;20080;-58
2023/10/30 00:40:06;;;;;;;0.20;0.20;;;;;;;10.37;100.00;97999.13;4903951;29;20056;-59
2023/10/30 00:42:33;;;;;;;0.20;0.20;;;;;;;10.30;100.00;97998.59;4900902;29;20052;-59
2023/10/30 00:45:00;;;;;;;0.20;0.20;;;;;;;10.21;100.00;98008.22;4910558;29;20135;-59
2023/10/30 00:47:27;;;;;;;0.20;0.20;;;;;;;10.15;100.00;98024.28;4904177;29;20466;-59
2023/10/30 00:49:54;;;;;;;0.20;0.20;;;;;;;10.17;100.00;98023.22;4908641;29;20135;-59
2023/10/30 00:52:21;;;;;;;0.30;0.30;;;;;;;10.18;100.00;98008.75;4901844;29;20572;-59
2023/10/30 00:54:50;;;;;;;0.30;0.30;;;;;;;10.22;100.00;97999.13;4909701;29;20411;-59
2023/10/30 00:57:17;;;;;;;0.20;0.20;;;;;;;10.20;100.00;97998.56;4907410;29;20139;-58
2023/10/30 00:59:44;;;;;;;0.20;0.20;;;;;;;10.19;100.00;97997.78;4902078;29;20522;-61
2023/10/30 01:02:11;;;;;;;0.20;0.20;;;;;;;10.19;100.00;97997.00;4907853;29;20051;-60
2023/10/30 01:04:38;;;;;;;0.20;0.20;;;;;;;10.15;100.00;98002.84;4906163;29;20044;-60
2023/10/30 01:07:05;;;;;;;0.20;0.20;;;;;;;10.15;100.00;98013.56;4898711;29;20380;-59
2023/10/30 01:09:32;;;;;;;0.20;0.20;;;;;;;10.14;100.00;98011.19;4909460;29;20044;-60
2023/10/30 01:12:01;;;;;;;0.30;0.30;;;;;;;10.06;100.00;98012.53;4894235;29;20044;-59
2023/10/30 01:14:28;;;;;;;0.20;0.20;;;;;;;10.08;100.00;98017.59;4908535;29;20082;-59
2023/10/30 01:16:55;;;;;;;0.20;0.20;;;;;;;10.01;100.00;98027.75;4900277;29;20135;-58
2023/10/30 01:19:22;;;;;;;0.20;0.20;;;;;;;9.92;100.00;98039.00;4901900;29;20047;-60
2023/10/30 01:21:49;;;;;;;0.20;0.20;;;;;;;9.87;100.00;98030.97;4906355;29;20147;-61
2023/10/30 01:24:17;;;;;;;0.25;0.25;;;;;;;9.91;100.00;98023.25;4910154;29;20071;-60
2023/10/30 01:26:43;;;;;;;0.10;0.10;;;;;;;9.92;100.00;98032.84;4902152;29;20135;-60
2023/10/30 01:29:12;;;;;;;0.30;0.30;;;;;;;9.96;100.00;98031.25;4899413;29;20059;-60
2023/10/30 01:31:39;;;;;;;0.20;0.20;;;;;;;9.98;100.00;98039.81;4906160;29;20176;-60
2023/10/30 01:34:06;;;;;;;0.20;0.20;;;;;;;10.02;100.00;98038.22;4905872;29;20128;-60
2023/10/30 01:36:34;;;;;;;0.30;0.30;;;;;;;10.05;100.00;98037.66;4904791;29;20487;-60
2023/10/30 01:39:01;;;;;;;0.30;0.30;;;;;;;10.05;100.00;98043.03;4908876;29;20131;-60
2023/10/30 01:41:28;;;;;;;0.20;0.20;;;;;;;10.08;100.00;98044.38;4906688;29;20171;-60
2023/10/30 01:43:55;;;;;;;0.20;0.20;;;;;;;10.07;100.00;98035.53;4901839;29;20666;-60
2023/10/30 01:46:24;;;;;;;0.20;0.20;;;;;;;10.04;100.00;98024.56;4897907;29;20138;-60
2023/10/30 01:48:51;;;;;;;0.20;0.20;;;;;;;10.12;100.00;98030.19;4910593;29;20147;-60
2023/10/30 01:51:19;;;;;;;0.15;0.15;;;;;;;10.10;100.00;98031.53;4908085;29;20073;-60
2023/10/30 01:53:46;;;;;;;0.20;0.20;;;;;;;10.12;100.00;98046.25;4899088;29;20068;-59
2023/10/30 01:56:13;;;;;;;0.20;0.20;;;;;;;9.98;100.00;98055.88;4911701;29;20767;-60
2023/10/30 01:58:41;;;;;;;0.20;0.20;;;;;;;10.01;100.00;98055.34;4909744;29;20517;-60
2023/10/30 02:01:08;;;;;;;0.10;0.10;;;;;;;10.12;100.00;98056.94;4911609;29;20044;-60
2023/10/30 02:03:36;;;;;;;0.20;0.20;;;;;;;10.13;100.00;98050.53;4907132;29;20044;-59
2023/10/30 02:06:04;;;;;;;0.20;0.20;;;;;;;10.03;100.00;98045.16;4900742;29;20056;-59
2023/10/30 02:08:30;;;;;;;0.10;0.10;;;;;;;10.13;100.00;98041.69;4916090;29;20063;-59
2023/10/30 02:10:57;;;;;;;0.20;0.20;;;;;;;10.10;100.00;98037.66;4900485;29;20503;-59
2023/10/30 02:13:24;;;;;;;0.20;0.20;;;;;;;10.14;100.00;98033.41;4913865;29;20049;-59
2023/10/30 02:15:51;;;;;;;0.20;0.20;;;;;;;10.14;100.00;98027.25;4903072;29;20036;-60
2023/10/30 02:18:18;;;;;;;0.20;0.20;;;;;;;10.17;100.00;98021.34;4901990;29;20048;-59
2023/10/30 02:20:47;;;;;;;0.20;0.20;;;;;;;10.16;100.00;98019.75;4897960;29;20135;-60
2023/10/30 02:23:14;;;;;;;0.22;0.22;;;;;;;10.11;100.00;98017.06;4900507;29;20072;-59
2023/10/30 02:25:45;;;;;;;0.20;0.20;;;;;;;10.16;100.00;98011.72;4907203;29;20472;-60
2023/10/30 02:28:12;;;;;;;0.20;0.20;;;;;;;9.99;100.00;98003.16;4918305;29;20111;-60
2023/10/30 02:30:39;;;;;;;0.20;0.20;;;;;;;9.98;100.00;98006.88;4899258;29;20040;-59
2023/10/30 02:33:07;;;;;;;0.28;0.28;;;;;;;10.10;100.00;98016.25;4905276;29;20052;-60
2023/10/30 02:35:35;;;;;;;0.20;0.20;;;;;;;10.08;100.00;98020.28;4912280;29;20171;-59
2023/10/30 02:38:02;;;;;;;0.20;0.20;;;;;;;10.00;100.00;98008.22;4911602;29;20052;-59
2023/10/30 02:40:28;;;;;;;0.30;0.30;;;;;;;9.98;100.00;98005.00;4905934;29;20579;-59
2023/10/30 02:42:56;;;;;;;0.20;0.20;;;;;;;9.95;100.00;98000.19;4914969;29;20048;-59
2023/10/30 02:45:23;;;;;;;0.20;0.20;;;;;;;9.93;100.00;98005.84;4912050;29;20143;-59
2023/10/30 02:47:50;;;;;;;0.22;0.22;;;;;;;9.95;100.00;98005.56;4902049;29;20079;-59
2023/10/30 02:50:17;;;;;;;0.20;0.20;;;;;;;10.02;100.00;98014.13;4897229;29;20044;-59
2023/10/30 02:52:44;;;;;;;0.20;0.20;;;;;;;9.93;100.00;98018.41;4894960;29;20044;-59
2023/10/30 02:55:11;;;;;;;0.30;0.30;;;;;;;9.92;100.00;98006.09;4914060;29;20062;-59
2023/10/30 02:57:40;;;;;;;0.10;0.10;;;;;;;9.97;100.00;97999.94;4903029;29;20127;-59
2023/10/30 03:00:09;;;;;;;0.20;0.20;;;;;;;9.96;100.00;98006.34;4914145;29;20176;-59
2023/10/30 03:02:36;;;;;;;0.20;0.20;;;;;;;10.00;100.00;97997.53;4896072;29;20048;-59
2023/10/30 03:05:05;;;;;;;0.20;0.20;;;;;;;10.01;100.00;97999.16;4909677;29;20502;-59
2023/10/30 03:07:33;;;;;;;0.20;0.20;;;;;;;10.00;100.00;97999.41;4906043;29;20119;-59
2023/10/30 03:10:00;;;;;;;0.10;0.10;;;;;;;10.02;100.00;98002.63;4902776;29;20068;-59
2023/10/30 03:12:28;;;;;;;0.20;0.20;;;;;;;9.86;100.00;98001.78;4900317;29;20048;-59
2023/10/30 03:14:55;;;;;;;0.20;0.20;;;;;;;9.87;100.00;98000.75;4903286;29;20115;-59
2023/10/30 03:17:23;;;;;;;0.20;0.20;;;;;;;9.75;100.00;97997.53;4907727;29;20127;-59
2023/10/30 03:19:50;;;;;;;0.20;0.20;;;;;;;9.60;100.00;97998.31;4905054;29;20049;-59
2023/10/30 03:22:17;;;;;;;0.20;0.20;;;;;;;9.36;100.00;97995.31;4907494;29;20040;-59
2023/10/30 03:24:45;;;;;;;0.13;0.13;;;;;;;9.44;100.00;98000.16;4907120;29;20128;-59
2023/10/30 03:27:12;;;;;;;0.20;0.20;;;;;;;9.47;100.00;98007.66;4902236;29;20129;-59
2023/10/30 03:29:40;;;;;;;0.30;0.30;;;;;;;9.42;100.00;98004.97;4904261;29;20136;-59
2023/10/30 03:32:07;;;;;;;0.20;0.20;;;;;;;9.42;100.00;97996.94;4903185;29;20128;-59
2023/10/30 03:34:36;;;;;;;0.20;0.20;;;;;;;9.22;100.00;97995.03;4914025;29;20051;-59
2023/10/30 03:37:04;;;;;;;0.30;0.30;;;;;;;9.31;100.00;97998.81;4905709;29;20049;-59
2023/10/30 03:39:33;;;;;;;0.20;0.20;;;;;;;9.35;100.00;98007.09;4903656;29;20047;-59
2023/10/30 03:42:00;;;;;;;0.20;0.20;;;;;;;9.38;100.00;98025.28;4907047;29;20048;-59
2023/10/30 03:44:27;;;;;;;0.10;0.10;;;;;;;9.39;100.00;98021.56;4908014;29;20040;-59
2023/10/30 03:46:54;;;;;;;0.20;0.20;;;;;;;9.25;100.00;98021.25;4904122;29;20048;-59
2023/10/30 03:49:22;;;;;;;0.20;0.20;;;;;;;9.32;100.00;98003.06;4898696;29;20048;-59
2023/10/30 03:51:53;;;;;;;0.22;0.22;;;;;;;9.54;100.00;97994.03;4918142;29;20063;-59
2023/10/30 03:54:21;;;;;;;0.20;0.20;;;;;;;9.64;100.00;97992.16;4909200;29;20407;-59
2023/10/30 03:56:49;;;;;;;0.17;0.17;;;;;;;9.70;100.00;98001.78;4902661;29;20056;-59
2023/10/30 03:59:16;;;;;;;0.20;0.20;;;;;;;9.73;100.00;98008.47;4902055;29;20052;-59
2023/10/30 04:01:43;;;;;;;0.20;0.20;;;;;;;9.77;100.00;97998.06;4907120;29;20135;-59
2023/10/30 04:04:10;;;;;;;0.20;0.20;;;;;;;9.71;100.00;97997.28;4902413;29;20136;-59
2023/10/30 04:06:37;;;;;;;0.20;0.20;;;;;;;9.78;100.00;97991.63;4903782;29;20084;-59
2023/10/30 04:09:06;;;;;;;0.20;0.20;;;;;;;9.84;100.00;97990.59;4904965;29;20092;-59
2023/10/30 04:11:33;;;;;;;0.30;0.30;;;;;;;9.82;100.00;97985.47;4903762;29;20044;-59
2023/10/30 04:14:00;;;;;;;0.20;0.20;;;;;;;9.84;100.00;97980.66;4899320;29;20072;-59
2023/10/30 04:16:27;;;;;;;0.38;0.38;;;;;;;9.83;100.00;97989.75;4915480;29;20139;-59
2023/10/30 04:18:55;;;;;;;0.20;0.20;;;;;;;9.78;100.00;97980.94;4908740;29;20071;-59
2023/10/30 04:21:24;;;;;;;0.25;0.25;;;;;;;9.74;100.00;97977.19;4900709;29;20048;-59
2023/10/30 04:23:51;;;;;;;0.20;0.20;;;;;;;9.67;100.00;97975.56;4901439;29;20063;-59
2023/10/30 04:26:20;;;;;;;0.20;0.20;;;;;;;9.57;100.00;97964.88;4908502;29;20060;-59
2023/10/30 04:28:47;;;;;;;0.20;0.20;;;;;;;9.55;100.00;97967.00;4907682;29;20111;-59
2023/10/30 04:31:14;;;;;;;0.20;0.20;;;;;;;9.49;100.00;97962.72;4905644;29;20473;-59
2023/10/30 04:33:43;;;;;;;0.20;0.20;;;;;;;9.47;100.00;97959.50;4914444;29;20036;-59
2023/10/30 04:36:10;;;;;;;0.20;0.20;;;;;;;9.43;100.00;97969.13;4899358;29;20051;-60
2023/10/30 04:38:37;;;;;;;0.20;0.20;;;;;;;9.43;100.00;97991.31;4910903;29;20463;-59
2023/10/30 04:41:04;;;;;;;0.20;0.20;;;;;;;9.45;100.00;97983.84;4904263;29;20068;-59
2023/10/30 04:43:33;;;;;;;0.28;0.28;;;;;;;9.31;100.00;97992.63;4903059;29;20044;-60
2023/10/30 04:46:02;;;;;;;0.20;0.20;;;;;;;9.41;100.00;97998.00;4904350;29;20054;-59
2023/10/30 04:48:30;;;;;;;0.30;0.30;;;;;;;9.41;100.00;97992.66;4901973;29;20481;-59
2023/10/30 04:50:57;;;;;;;0.20;0.20;;;;;;;9.26;100.00;97988.91;4898675;29;20080;-59
2023/10/30 04:53:24;;;;;;;0.30;0.30;;;;;;;9.45;100.00;97993.75;4903808;29;20155;-59
2023/10/30 04:55:51;;;;;;;0.20;0.20;;;;;;;9.67;100.00;97991.63;4906644;29;20048;-59
2023/10/30 04:58:19;;;;;;;0.20;0.20;;;;;;;9.78;100.00;97996.97;4901326;29;20078;-59
2023/10/30 05:00:50;;;;;;;0.20;0.20;;;;;;;9.85;100.00;98001.00;4903300;29;20056;-59
2023/10/30 05:03:19;;;;;;;0.13;0.13;;;;;;;9.90;100.00;98008.22;4900056;29;20494;-59
2023/10/30 05:05:47;;;;;;;0.20;0.20;;;;;;;9.95;100.00;97997.53;4898615;29;20267;-58
2023/10/30 05:08:15;;;;;;;0.20;0.20;;;;;;;9.77;100.00;97995.38;4898226;29;20051;-58
2023/10/30 05:10:42;;;;;;;0.15;0.15;;;;;;;9.80;100.00;98000.19;4910639;29;20506;-58
2023/10/30 05:13:10;;;;;;;0.20;0.20;;;;;;;9.99;100.00;98003.97;4902403;29;20083;-58
2023/10/30 05:15:37;;;;;;;0.20;0.20;;;;;;;10.11;100.00;98001.00;4904718;29;20055;-59
2023/10/30 05:18:05;;;;;;;0.20;0.20;;;;;;;10.25;100.00;98010.09;4899221;29;20044;-59
2023/10/30 05:20:32;;;;;;;0.30;0.30;;;;;;;10.22;100.00;98021.34;4909531;29;20037;-58
2023/10/30 05:23:02;;;;;;;0.20;0.20;;;;;;;9.92;100.00;98011.44;4904587;29;20592;-59
2023/10/30 05:25:29;;;;;;;0.10;0.10;;;;;;;9.85;100.00;98008.22;4906011;29;20042;-59
2023/10/30 05:27:57;;;;;;;0.20;0.20;;;;;;;9.96;100.00;97993.78;4904725;29;20048;-58
2023/10/30 05:30:24;;;;;;;0.28;0.28;;;;;;;10.13;100.00;97980.94;4909530;29;20051;-59
2023/10/30 05:32:51;;;;;;;0.20;0.20;;;;;;;10.13;100.00;97997.00;4895853;29;20132;-59
2023/10/30 05:35:20;;;;;;;0.20;0.20;;;;;;;10.11;100.00;98003.69;4910548;29;20134;-59
2023/10/30 05:37:47;;;;;;;0.10;0.10;;;;;;;9.94;100.00;98025.38;4905973;29;20051;-59
2023/10/30 05:40:14;;;;;;;0.22;0.22;;;;;;;9.85;100.00;98030.44;4908113;29;20067;-59
2023/10/30 05:42:41;;;;;;;0.20;0.20;;;;;;;9.72;100.00;98021.06;4901309;29;20586;-59
2023/10/30 05:45:09;;;;;;;0.22;0.22;;;;;;;9.67;100.00;98029.09;4900155;29;20518;-59
2023/10/30 05:47:36;;;;;;;0.10;0.10;;;;;;;9.41;100.00;98014.06;4906620;29;20045;-59
2023/10/30 05:50:05;;;;;;;0.20;0.20;;;;;;;9.68;100.00;98020.00;4912603;29;20518;-59
2023/10/30 05:52:33;;;;;;;0.20;0.20;;;;;;;9.81;100.00;98028.56;4912962;29;20123;-59
2023/10/30 05:55:00;;;;;;;0.10;0.10;;;;;;;9.79;100.00;98028.84;4904572;29;20115;-59
2023/10/30 05:57:31;;;;;;;0.20;0.20;;;;;;;9.56;100.00;98038.19;4906182;29;20041;-59
2023/10/30 05:59:58;;;;;;;0.28;0.28;;;;;;;9.57;100.00;98029.06;4919759;29;20051;-58
2023/10/30 06:02:25;;;;;;;0.20;0.20;;;;;;;9.50;100.00;98028.53;4913830;29;20059;-59
2023/10/30 06:04:55;;;;;;;0.20;0.20;;;;;;;9.69;100.00;98026.94;4913236;29;20522;-59
2023/10/30 06:07:22;;;;;;;0.20;0.20;;;;;;;9.85;100.00;98022.41;4909849;29;20075;-59
2023/10/30 06:09:53;;;;;;;0.20;0.20;;;;;;;9.94;100.00;98018.13;4916429;29;20160;-59
2023/10/30 06:12:20;;;;;;;0.20;0.20;;;;;;;9.96;100.00;98009.84;4908786;29;20096;-58
2023/10/30 06:14:49;;;;;;;0.20;0.20;;;;;;;10.13;100.00;98007.69;4908901;29;20573;-59
2023/10/30 06:17:16;;;;;;;0.20;0.20;;;;;;;10.05;100.00;98005.53;4911425;29;20040;-59
2023/10/30 06:19:43;;;;;;;0.20;0.20;;;;;;;10.09;100.00;97998.59;4911474;29;20040;-59
2023/10/30 06:22:10;;;;;;;0.20;0.20;;;;;;;10.12;100.00;97999.94;4907229;29;20424;-59
2023/10/30 06:24:37;;;;;;;0.17;0.17;;;;;;;10.19;100.00;97992.44;4903500;29;20574;-59
2023/10/30 06:27:06;;;;;;;0.13;0.13;;;;;;;10.11;100.00;98001.00;4908680;29;20092;-59
2023/10/30 06:29:35;;;;;;;0.20;0.20;;;;;;;10.12;100.00;97994.56;4909499;29;20135;-59
2023/10/30 06:32:03;;;;;;;0.30;0.30;;;;;;;10.10;100.00;98000.19;4908863;29;20044;-59
2023/10/30 06:34:31;;;;;;;0.20;0.20;;;;;;;10.08;100.00;98007.72;4916062;29;20127;-58
2023/10/30 06:36:58;;;;;;;0.20;0.20;;;;;;;10.12;100.00;98013.31;4911984;29;20052;-59
2023/10/30 06:39:28;;;;;;;0.20;0.20;;;;;;;10.15;100.00;98024.28;4911329;29;20134;-59
2023/10/30 06:41:56;;;;;;;0.20;0.20;;;;;;;10.25;100.00;98017.31;4909888;29;20076;-59
2023/10/30 06:44:25;;;;;;;0.20;0.20;;;;;;;10.26;100.00;98030.44;4903957;29;20562;-59
2023/10/30 06:46:53;;;;;;;0.20;0.20;;;;;;;10.18;100.00;98024.81;4904458;29;20447;-59
2023/10/30 06:49:21;;;;;;;0.20;0.20;;;;;;;10.24;100.00;98016.53;4907899;29;20992;-59
2023/10/30 06:51:48;;;;;;;0.30;0.30;;;;;;;10.27;100.00;98021.31;4904455;29;20045;-59
2023/10/30 06:54:15;;;;;;;0.20;0.20;;;;;;;10.20;100.00;98020.78;4917938;29;20049;-59
2023/10/30 06:56:42;;;;;;;0.20;0.20;;;;;;;10.21;100.00;98022.41;4908259;29;20044;-59
2023/10/30 06:59:12;;;;;;;0.20;0.20;;;;;;;10.24;100.00;98018.41;4905592;29;20072;-59
2023/10/30 07:01:43;;;;;;;0.15;0.15;;;;;;;10.38;100.00;98000.72;4910470;29;20122;-59
2023/10/30 07:04:10;;;;;;;0.20;0.20;;;;;;;10.19;100.00;97997.78;4910202;29;20052;-59
2023/10/30 07:06:37;;;;;;;0.10;0.10;;;;;;;10.25;100.00;98014.63;4912393;29;20073;-59
2023/10/30 07:09:06;;;;;;;0.20;0.20;;;;;;;10.35;100.00;98020.00;4905960;29;20216;-59
2023/10/30 07:11:33;;;;;;;0.10;0.10;;;;;;;10.31;100.00;98018.97;4902464;29;20288;-59
2023/10/30 07:14:02;;;;;;;0.22;0.22;;;;;;;10.23;100.00;98024.81;4911446;29;20043;-59
2023/10/30 07:16:29;;;;;;;0.20;0.20;;;;;;;10.33;100.00;98030.19;4909088;29;20047;-59
2023/10/30 07:18:58;;;;;;;0.20;0.20;;;;;;;10.38;100.00;98019.47;4913657;29;20076;-59
2023/10/30 07:21:25;;;;;;;0.20;0.20;;;;;;;10.39;100.00;98018.41;4904343;29;20068;-59
2023/10/30 07:23:52;;;;;;;0.20;0.20;;;;;;;10.29;100.00;98010.38;4914702;29;20119;-59
2023/10/30 07:26:21;;;;;;;0.20;0.20;;;;;;;10.29;100.00;98005.03;4904839;29;20048;-59
2023/10/30 07:28:48;;;;;;;0.20;0.20;;;;;;;10.30;100.00;98011.97;4906992;29;20059;-59
2023/10/30 07:31:15;;;;;;;0.17;0.17;;;;;;;10.29;100.00;98018.44;4910608;29;20044;-60
2023/10/30 07:33:42;;;;;;;0.20;0.20;;;;;;;10.32;100.00;98017.88;4906147;29;20451;-60
2023/10/30 07:36:15;;;;;;;0.20;0.20;;;;;;;10.41;100.00;98010.91;4910466;29;20431;-61
2023/10/30 07:38:42;;;;;;;0.20;0.20;;;;;;;10.44;100.00;98013.03;4913377;29;20046;-58
2023/10/30 07:41:09;;;;;;;0.20;0.20;;;;;;;10.50;100.00;98029.91;4905705;29;20135;-59
2023/10/30 07:43:36;;;;;;;0.20;0.20;;;;;;;10.49;100.00;98031.78;4906923;29;20052;-58
2023/10/30 07:46:03;;;;;;;0.20;0.20;;;;;;;10.66;100.00;98036.00;4908994;29;20499;-61
2023/10/30 07:48:31;;;;;;;0.10;0.10;;;;;;;10.64;100.00;98030.94;4909780;29;20474;-58
2023/10/30 07:51:02;;;;;;;0.10;0.10;;;;;;;10.88;100.00;98019.59;4912409;29;20052;-58
2023/10/30 07:53:31;;;;;;;0.20;0.20;;;;;;;10.78;100.00;98021.28;4906667;29;20410;-59
2023/10/30 07:55:57;;;;;;;0.20;0.20;;;;;;;10.83;100.00;98028.47;4904271;29;20056;-58
2023/10/30 07:58:25;;;;;;;0.20;0.20;;;;;;;10.85;100.00;98031.69;4904898;29;20277;-58
2023/10/30 08:00:53;;;;;;;0.10;0.10;;;;;;;10.84;100.00;98030.09;4905429;29;20056;-59
2023/10/30 08:03:20;;;;;;;0.20;0.20;;;;;;;11.00;100.00;98022.78;4912910;29;20048;-58
2023/10/30 08:05:47;;;;;;;0.20;0.20;;;;;;;11.10;100.00;98017.38;4905558;29;20079;-58
2023/10/30 08:08:17;;;;;;;0.20;0.20;;;;;;;11.20;100.00;98016.53;4899063;29;20052;-61
2023/10/30 08:10:47;;;;;;;0.20;0.20;;;;;;;10.98;100.00;98004.31;4909115;29;20147;-61
2023/10/30 08:13:15;;;;;;;0.20;0.20;;;;;;;10.98;100.00;97990.91;4907806;29;20389;-59
2023/10/30 08:15:42;;;;;;;0.20;0.20;;;;;;;11.01;100.00;98009.13;4911994;29;20107;-59
2023/10/30 08:18:09;;;;;;;0.20;0.20;;;;;;;11.05;100.00;97997.81;4902743;29;20052;-59
2023/10/30 08:20:36;;;;;;;0.10;0.10;;;;;;;11.10;100.00;97985.19;4900607;29;20044;-59
2023/10/30 08:23:03;;;;;;;0.20;0.20;;;;;;;11.16;100.00;97994.84;4908279;29;20048;-58
2023/10/30 08:25:30;;;;;;;0.20;0.20;;;;;;;11.21;100.00;97992.13;4904447;29;20048;-59
2023/10/30 08:28:00;;;;;;;0.10;0.10;;;;;;;11.27;100.00;98000.94;4906844;29;20053;-59
2023/10/30 08:30:27;;;;;;;0.20;0.20;;;;;;;11.37;100.00;98003.56;4909074;29;20056;-59
2023/10/30 08:32:54;;;;;;;0.20;0.20;;;;;;;11.18;100.00;97998.03;4911008;29;20100;-59
2023/10/30 08:35:21;;;;;;;0.20;0.20;;;;;;;11.42;100.00;98003.53;4903283;29;20380;-60
2023/10/30 08:37:48;;;;;;;0.13;0.13;;;;;;;11.62;100.00;98007.16;4911831;29;20060;-59
2023/10/30 08:40:17;;;;;;;0.20;0.20;;;;;;;11.30;100.00;98000.38;4895688;29;20040;-59
2023/10/30 08:42:45;;;;;;;0.20;0.20;;;;;;;11.62;100.00;97997.22;4902601;29;20048;-59
2023/10/30 08:45:13;;;;;;;0.20;0.20;;;;;;;11.63;100.00;97998.03;4908487;29;20095;-59
2023/10/30 08:47:40;;;;;;;0.20;0.20;;;;;;;11.70;100.00;98001.19;4915415;29;20052;-59
2023/10/30 08:50:08;;;;;;;0.20;0.20;;;;;;;12.00;100.00;97991.34;4899504;29;20079;-59
2023/10/30 08:52:39;;;;;;;0.20;0.20;;;;;;;11.78;100.00;97989.88;4910598;29;20080;-59
2023/10/30 08:55:07;;;;;;;0.20;0.20;;;;;;;12.05;100.00;97980.56;4903436;29;20221;-59
2023/10/30 08:57:34;;;;;;;0.13;0.13;;;;;;;12.13;100.00;97984.50;4907369;29;20056;-59
2023/10/30 09:00:01;;;;;;;0.10;0.10;;;;;;;12.14;100.00;97981.56;4903779;29;20057;-59
2023/10/30 09:02:29;;;;;;;0.10;0.10;;;;;;;12.89;100.00;97980.22;4907195;29;20108;-59
2023/10/30 09:04:56;;;;;;;0.20;0.20;;;;;;;12.90;100.00;97976.44;4905551;29;20068;-59
2023/10/30 09:07:23;;;;;;;0.10;0.10;;;;;;;13.45;100.00;97979.47;4902414;29;20081;-59
2023/10/30 09:09:51;;;;;;;0.10;0.10;;;;;;;13.43;100.00;97980.88;4905225;29;20052;-59
2023/10/30 09:12:18;;;;;;;0.10;0.10;;;;;;;13.35;100.00;97982.31;4899899;29;20471;-59
2023/10/30 09:14:46;;;;;;;0.10;0.10;;;;;;;15.15;100.00;97988.94;4902446;29;20511;-59
2023/10/30 09:17:13;;;;;;;0.15;0.15;;;;;;;14.93;100.00;97994.25;4904309;29;20044;-60
2023/10/30 09:19:42;;;;;;;0.10;0.10;;;;;;;14.53;100.00;97994.72;4909878;29;20044;-61
2023/10/30 09:22:09;;;;;;;0.10;0.10;;;;;;;14.20;100.00;97969.66;4895981;29;20104;-60
2023/10/30 09:24:36;;;;;;;0.10;0.10;;;;;;;14.08;100.00;97961.25;4897935;29;20062;-60
2023/10/30 09:27:03;;;;;;;0.10;0.10;;;;;;;14.14;100.00;97970.88;4900060;29;20068;-59
2023/10/30 09:29:30;;;;;;;0.10;0.10;;;;;;;14.28;100.00;97979.78;4907995;29;20111;-59
2023/10/30 09:31:59;;;;;;;0.10;0.10;;;;;;;14.76;100.00;97984.84;4903430;29;20078;-59
2023/10/30 09:34:26;;;;;;;0.00;0.00;;;;;;;14.07;100.00;97976.63;4904905;29;20052;-59
2023/10/30 09:36:54;;;;;;;0.10;0.10;;;;;;;13.49;100.00;97968.94;4908189;29;20152;-59
2023/10/30 09:39:22;;;;;;;0.20;0.20;;;;;;;13.78;100.00;97966.09;4903869;29;20100;-59
2023/10/30 09:41:49;;;;;;;0.10;0.10;;;;;;;13.73;100.00;97966.16;4900701;29;20125;-59
2023/10/30 09:44:16;;;;;;;0.10;0.10;;;;;;;13.50;100.00;97965.94;4911321;29;20079;-60
2023/10/30 09:46:43;;;;;;;0.10;0.10;;;;;;;12.93;100.00;97959.75;4903215;29;20044;-60
2023/10/30 09:49:13;;;;;;;0.15;0.15;;;;;;;13.26;100.00;97941.00;4908084;29;20502;-60
2023/10/30 09:51:42;;;;;;;0.20;0.20;;;;;;;13.57;100.00;97947.53;4909645;29;20051;-59
2023/10/30 09:54:11;;;;;;;0.10;0.10;;;;;;;13.86;100.00;97937.69;4902645;29;20119;-60
2023/10/30 09:56:39;;;;;;;0.10;0.10;;;;;;;13.89;100.00;97937.09;4896014;29;20127;-61
2023/10/30 09:59:06;;;;;;;0.10;0.10;;;;;;;13.50;100.00;97941.72;4911336;29;20080;-60
2023/10/30 10:01:34;;;;;;;0.13;0.13;;;;;;;13.47;100.00;97942.31;4897409;29;20131;-59
2023/10/30 10:04:01;;;;;;;0.10;0.10;;;;;;;14.61;100.00;97942.00;4903350;29;20055;-59
2023/10/30 10:06:28;;;;;;;0.10;0.10;;;;;;;13.92;100.00;97936.50;4902190;29;20052;-59
2023/10/30 10:08:55;;;;;;;0.10;0.10;;;;;;;13.95;100.00;97938.59;4909700;29;20135;-59
2023/10/30 10:11:24;;;;;;;0.10;0.10;;;;;;;14.00;100.00;97942.00;4907152;29;20131;-59
2023/10/30 10:13:53;;;;;;;0.10;0.10;;;;;;;14.23;100.00;97931.38;4906830;29;20427;-59
2023/10/30 10:16:26;;;;;;;0.10;0.10;;;;;;;14.08;100.00;97945.09;4903207;29;20052;-59
2023/10/30 10:18:53;;;;;;;0.10;0.10;;;;;;;13.84;100.00;97939.88;4907063;29;20135;-60
2023/10/30 10:21:22;;;;;;;0.10;0.10;;;;;;;14.05;100.00;97941.09;4904229;29;20515;-60
2023/10/30 10:23:49;;;;;;;0.20;0.20;;;;;;;14.24;100.00;97944.53;4911378;29;20044;-61
2023/10/30 10:26:16;;;;;;;0.20;0.20;;;;;;;13.79;100.00;97932.66;4895175;29;20045;-60
2023/10/30 10:28:46;;;;;;;0.20;0.20;;;;;;;14.44;100.00;97935.25;4905275;29;20526;-60
2023/10/30 10:31:14;;;;;;;0.20;0.20;;;;;;;14.80;100.00;97917.59;4903588;29;20052;-60
2023/10/30 10:33:41;;;;;;;0.20;0.20;;;;;;;14.87;100.00;97915.28;4899777;29;20060;-59
2023/10/30 10:36:09;;;;;;;0.10;0.10;;;;;;;16.30;96.38;97908.38;4901359;29;20044;-59
2023/10/30 10:38:36;;;;;;;0.10;0.10;;;;;;;16.14;95.61;97916.91;4900632;29;20040;-59
2023/10/30 10:41:03;;;;;;;0.10;0.10;;;;;;;15.15;100.00;97929.56;4906269;29;20127;-60
2023/10/30 10:43:31;;;;;;;0.10;0.10;;;;;;;15.26;100.00;97922.03;4911623;29;20139;-60
2023/10/30 10:46:00;;;;;;;0.10;0.10;;;;;;;14.25;100.00;97923.78;4908337;29;20044;-61
2023/10/30 10:48:27;;;;;;;0.10;0.10;;;;;;;14.23;100.00;97924.09;4907813;29;20044;-57
2023/10/30 10:50:55;;;;;;;0.10;0.10;;;;;;;14.62;100.00;97911.22;4912808;29;20419;-58
2023/10/30 10:53:22;;;;;;;0.10;0.10;;;;;;;14.63;100.00;97904.75;4905646;29;20075;-58
2023/10/30 10:55:50;;;;;;;0.10;0.10;;;;;;;14.26;100.00;97897.66;4907422;29;20103;-60
2023/10/30 10:58:19;;;;;;;0.10;0.10;;;;;;;14.45;100.00;97901.84;4909275;29;20044;-60
2023/10/30 11:00:47;;;;;;;0.10;0.10;;;;;;;14.21;100.00;97899.31;4905403;29;20463;-60
2023/10/30 11:03:16;;;;;;;0.15;0.15;;;;;;;14.48;100.00;97886.13;4906859;29;20043;-60
2023/10/30 11:05:44;;;;;;;0.10;0.10;;;;;;;13.98;100.00;97881.44;4908011;29;20055;-60
2023/10/30 11:08:25;;;;;;;0.10;0.10;;;;;;;14.23;100.00;97870.19;4899636;29;20068;-60
2023/10/30 11:11:05;;;;;;;0.10;0.10;;;;;;;14.33;100.00;97860.31;4912656;29;20075;-60
2023/10/30 11:13:38;;;;;;;0.15;0.15;;;;;;;14.55;100.00;97862.31;4914255;29;20080;-60
2023/10/30 11:16:08;;;;;;;0.10;0.10;;;;;;;13.93;100.00;97860.78;4904013;29;20048;-60
2023/10/30 11:18:37;;;;;;;0.10;0.10;;;;;;;14.00;100.00;97861.19;4916767;29;20079;-60
2023/10/30 11:21:12;;;;;;;0.10;0.10;;;;;;;14.18;100.00;97850.63;4901647;29;20115;-58
2023/10/30 11:23:56;;;;;;;0.10;0.10;;;;;;;14.32;100.00;97848.72;4907845;29;20048;-60
2023/10/30 11:26:40;;;;;;;0.10;0.10;;;;;;;14.34;100.00;97838.44;4910418;29;20040;-60
2023/10/30 11:29:11;;;;;;;0.10;0.10;;;;;;;14.57;100.00;97841.25;4911195;29;20060;-60